sensor_id;sensor_type;location;lat;lon;timestamp;temperature;humidity
46378;DHT22;32083;47.360;9.650;2022-11-15T05:02:04;5.60;99.90
46378;DHT22;32083;47.360;9.650;2022-11-15T05:04:30;5.50;99.90
46378;DHT22;32083;47.360;9.650;2022-11-15T05:06:56;5.50;99.90
46378;DHT22;32083;47.360;9.650;2022-11-15T05:09:22;5.50;99.90
46378;DHT22;32083;47.360;9.650;2022-11-15T05:11:48;5.50;99.90
46378;DHT22;32083;47.360;9.650;2022-11-15T05:14:14;5.50;99.90
46378;DHT22;32083;47.360;9.650;2022-11-15T05:16:41;5.60;99.90
46378;DHT22;32083;47.360;9.650;2022-11-15T05:19:07;5.60;99.90
46378;DHT22;32083;47.360;9.650;2022-11-15T05:21:34;5.50;99.90
46378;DHT22;32083;47.360;9.650;2022-11-15T05:24:00;5.50;99.90
46378;DHT22;32083;47.360;9.650;2022-11-15T05:26:27;5.50;99.90
46378;DHT22;32083;47.360;9.650;2022-11-15T05:28:54;5.40;99.90
46378;DHT22;32083;47.360;9.650;2022-11-15T05:31:21;5.40;99.90
46378;DHT22;32083;47.360;9.650;2022-11-15T05:33:49;5.40;99.90
46378;DHT22;32083;47.360;9.650;2022-11-15T05:38:42;5.20;99.90
46378;DHT22;32083;47.360;9.650;2022-11-15T05:41:08;5.20;99.90
46378;DHT22;32083;47.360;9.650;2022-11-15T05:43:35;5.20;99.90
46378;DHT22;32083;47.360;9.650;2022-11-15T05:46:04;5.20;99.90
46378;DHT22;32083;47.360;9.650;2022-11-15T05:48:31;5.10;99.90
46378;DHT22;32083;47.360;9.650;2022-11-15T05:50:58;5.10;99.90
46378;DHT22;32083;47.360;9.650;2022-11-15T05:53:25;5.10;99.90
46378;DHT22;32083;47.360;9.650;2022-11-15T05:55:51;5.10;99.90
46378;DHT22;32083;47.360;9.650;2022-11-15T05:58:18;5.10;99.90
46378;DHT22;32083;47.360;9.650;2022-11-15T06:00:44;5.00;99.90
46378;DHT22;32083;47.360;9.650;2022-11-15T06:03:10;5.00;99.90
46378;DHT22;32083;47.360;9.650;2022-11-15T06:05:36;5.00;99.90
46378;DHT22;32083;47.360;9.650;2022-11-15T06:08:02;5.00;99.90
46378;DHT22;32083;47.360;9.650;2022-11-15T06:10:28;4.90;99.90
46378;DHT22;32083;47.360;9.650;2022-11-15T06:13:02;5.00;99.90
46378;DHT22;32083;47.360;9.650;2022-11-15T06:15:28;5.00;99.90
46378;DHT22;32083;47.360;9.650;2022-11-15T06:17:57;4.90;99.90
46378;DHT22;32083;47.360;9.650;2022-11-15T06:20:27;4.90;99.90
46378;DHT22;32083;47.360;9.650;2022-11-15T06:23:03;4.90;99.90
46378;DHT22;32083;47.360;9.650;2022-11-15T06:25:30;4.80;99.90
46378;DHT22;32083;47.360;9.650;2022-11-15T06:27:57;4.80;99.90
46378;DHT22;32083;47.360;9.650;2022-11-15T06:30:25;4.80;99.90
46378;DHT22;32083;47.360;9.650;2022-11-15T06:32:52;4.80;99.90
46378;DHT22;32083;47.360;9.650;2022-11-15T06:35:23;4.80;99.90
46378;DHT22;32083;47.360;9.650;2022-11-15T06:37:49;4.80;99.90
46378;DHT22;32083;47.360;9.650;2022-11-15T06:40:15;4.80;99.90
46378;DHT22;32083;47.360;9.650;2022-11-15T06:42:41;4.80;99.90
46378;DHT22;32083;47.360;9.650;2022-11-15T06:45:08;4.80;99.90
46378;DHT22;32083;47.360;9.650;2022-11-15T06:47:34;4.80;99.90
46378;DHT22;32083;47.360;9.650;2022-11-15T06:50:00;4.80;99.90
46378;DHT22;32083;47.360;9.650;2022-11-15T06:52:26;4.70;99.90
46378;DHT22;32083;47.360;9.650;2022-11-15T06:54:52;4.70;99.90
46378;DHT22;32083;47.360;9.650;2022-11-15T06:57:18;4.70;99.90
46378;DHT22;32083;47.360;9.650;2022-11-15T06:59:44;4.70;99.90
46378;DHT22;32083;47.360;9.650;2022-11-15T07:02:13;4.70;99.90
46378;DHT22;32083;47.360;9.650;2022-11-15T07:04:39;4.70;99.90
46378;DHT22;32083;47.360;9.650;2022-11-15T07:07:05;4.60;99.90
46378;DHT22;32083;47.360;9.650;2022-11-15T07:09:31;4.60;99.90
46378;DHT22;32083;47.360;9.650;2022-11-15T07:11:57;4.70;99.90
46378;DHT22;32083;47.360;9.650;2022-11-15T07:14:23;4.80;99.90
46378;DHT22;32083;47.360;9.650;2022-11-15T07:16:49;4.80;99.90
46378;DHT22;32083;47.360;9.650;2022-11-15T07:19:15;4.80;99.90
46378;DHT22;32083;47.360;9.650;2022-11-15T07:21:40;4.80;99.90
46378;DHT22;32083;47.360;9.650;2022-11-15T07:24:06;4.80;99.90
46378;DHT22;32083;47.360;9.650;2022-11-15T07:26:32;4.80;99.90
46378;DHT22;32083;47.360;9.650;2022-11-15T07:28:58;4.80;99.90
46378;DHT22;32083;47.360;9.650;2022-11-15T07:31:24;4.70;99.90
46378;DHT22;32083;47.360;9.650;2022-11-15T07:33:51;4.80;99.90
46378;DHT22;32083;47.360;9.650;2022-11-15T07:36:17;4.70;99.90
46378;DHT22;32083;47.360;9.650;2022-11-15T07:38:43;4.70;99.90
46378;DHT22;32083;47.360;9.650;2022-11-15T07:41:09;4.70;99.90
46378;DHT22;32083;47.360;9.650;2022-11-15T07:43:35;4.60;99.90
46378;DHT22;32083;47.360;9.650;2022-11-15T07:46:08;4.70;99.90
46378;DHT22;32083;47.360;9.650;2022-11-15T07:48:38;4.80;99.90
46378;DHT22;32083;47.360;9.650;2022-11-15T07:51:06;4.80;99.90
46378;DHT22;32083;47.360;9.650;2022-11-15T07:53:33;5.00;99.90
46378;DHT22;32083;47.360;9.650;2022-11-15T07:55:59;5.20;99.90
46378;DHT22;32083;47.360;9.650;2022-11-15T07:58:25;5.40;99.90
46378;DHT22;32083;47.360;9.650;2022-11-15T08:00:51;5.50;99.90
46378;DHT22;32083;47.360;9.650;2022-11-15T08:03:17;5.60;99.90
46378;DHT22;32083;47.360;9.650;2022-11-15T08:05:43;5.70;99.90
46378;DHT22;32083;47.360;9.650;2022-11-15T08:08:15;5.80;99.90
46378;DHT22;32083;47.360;9.650;2022-11-15T08:10:41;5.80;99.90
46378;DHT22;32083;47.360;9.650;2022-11-15T08:13:09;5.80;99.90
46378;DHT22;32083;47.360;9.650;2022-11-15T08:15:36;5.90;99.90
46378;DHT22;32083;47.360;9.650;2022-11-15T08:18:05;5.90;99.90
46378;DHT22;32083;47.360;9.650;2022-11-15T08:20:32;6.00;99.90
46378;DHT22;32083;47.360;9.650;2022-11-15T08:23:01;6.10;99.90
46378;DHT22;32083;47.360;9.650;2022-11-15T08:25:29;6.20;99.90
46378;DHT22;32083;47.360;9.650;2022-11-15T08:28:01;6.30;99.90
46378;DHT22;32083;47.360;9.650;2022-11-15T08:30:29;6.40;99.90
46378;DHT22;32083;47.360;9.650;2022-11-15T08:32:57;6.50;99.90
46378;DHT22;32083;47.360;9.650;2022-11-15T08:35:24;6.50;99.90
46378;DHT22;32083;47.360;9.650;2022-11-15T08:37:53;6.60;99.90
46378;DHT22;32083;47.360;9.650;2022-11-15T08:40:19;6.70;99.90
46378;DHT22;32083;47.360;9.650;2022-11-15T08:42:49;6.70;99.90
46378;DHT22;32083;47.360;9.650;2022-11-15T08:45:15;6.80;99.90
46378;DHT22;32083;47.360;9.650;2022-11-15T08:47:41;6.80;99.90
46378;DHT22;32083;47.360;9.650;2022-11-15T08:50:07;6.90;99.90
46378;DHT22;32083;47.360;9.650;2022-11-15T08:52:34;6.90;99.90
46378;DHT22;32083;47.360;9.650;2022-11-15T08:55:01;6.90;99.90
46378;DHT22;32083;47.360;9.650;2022-11-15T08:57:29;7.00;99.90
46378;DHT22;32083;47.360;9.650;2022-11-15T08:59:58;7.00;99.90
46378;DHT22;32083;47.360;9.650;2022-11-15T09:02:24;7.00;99.90
46378;DHT22;32083;47.360;9.650;2022-11-15T09:04:50;7.10;99.90
46378;DHT22;32083;47.360;9.650;2022-11-15T09:07:16;7.10;99.90
46378;DHT22;32083;47.360;9.650;2022-11-15T09:09:42;7.20;99.90
46378;DHT22;32083;47.360;9.650;2022-11-15T09:12:08;7.30;99.90
46378;DHT22;32083;47.360;9.650;2022-11-15T09:14:35;7.30;99.90
46378;DHT22;32083;47.360;9.650;2022-11-15T09:17:01;7.50;99.90
46378;DHT22;32083;47.360;9.650;2022-11-15T09:19:27;7.50;99.90
46378;DHT22;32083;47.360;9.650;2022-11-15T09:21:53;7.50;99.90
46378;DHT22;32083;47.360;9.650;2022-11-15T09:24:20;7.60;99.90
46378;DHT22;32083;47.360;9.650;2022-11-15T09:26:46;7.70;99.90
46378;DHT22;32083;47.360;9.650;2022-11-15T09:29:12;7.80;99.90
46378;DHT22;32083;47.360;9.650;2022-11-15T09:31:38;7.80;99.90
46378;DHT22;32083;47.360;9.650;2022-11-15T09:34:04;7.80;99.90
46378;DHT22;32083;47.360;9.650;2022-11-15T09:36:30;7.80;99.90
46378;DHT22;32083;47.360;9.650;2022-11-15T09:38:57;7.90;99.90
46378;DHT22;32083;47.360;9.650;2022-11-15T09:50:12;8.10;99.90
46378;DHT22;32083;47.360;9.650;2022-11-15T09:52:42;8.20;99.90
46378;DHT22;32083;47.360;9.650;2022-11-15T09:55:11;8.30;99.90
46378;DHT22;32083;47.360;9.650;2022-11-15T10:00:56;8.50;99.90
46378;DHT22;32083;47.360;9.650;2022-11-15T10:03:37;8.60;99.90
46378;DHT22;32083;47.360;9.650;2022-11-15T10:06:05;8.60;99.90
46378;DHT22;32083;47.360;9.650;2022-11-15T10:11:27;8.80;99.90
46378;DHT22;32083;47.360;9.650;2022-11-15T10:13:59;8.90;99.90
46378;DHT22;32083;47.360;9.650;2022-11-15T10:24:25;9.00;99.90
46378;DHT22;32083;47.360;9.650;2022-11-15T10:26:55;9.20;99.90
46378;DHT22;32083;47.360;9.650;2022-11-15T10:29:23;9.30;99.90
46378;DHT22;32083;47.360;9.650;2022-11-15T10:31:49;9.30;99.90
46378;DHT22;32083;47.360;9.650;2022-11-15T10:34:18;9.40;99.90
46378;DHT22;32083;47.360;9.650;2022-11-15T10:36:46;9.50;99.90
46378;DHT22;32083;47.360;9.650;2022-11-15T10:39:13;9.50;99.90
46378;DHT22;32083;47.360;9.650;2022-11-15T10:41:42;9.50;99.90
46378;DHT22;32083;47.360;9.650;2022-11-15T10:47:16;9.60;99.90
46378;DHT22;32083;47.360;9.650;2022-11-15T10:49:32;9.70;99.90
46378;DHT22;32083;47.360;9.650;2022-11-15T10:52:00;9.70;99.90
46378;DHT22;32083;47.360;9.650;2022-11-15T10:54:54;9.70;99.90
46378;DHT22;32083;47.360;9.650;2022-11-15T10:57:23;9.80;99.90
46378;DHT22;32083;47.360;9.650;2022-11-15T10:59:59;9.90;99.90
46378;DHT22;32083;47.360;9.650;2022-11-15T11:02:36;10.00;99.90
46378;DHT22;32083;47.360;9.650;2022-11-15T11:07:58;10.20;99.90
46378;DHT22;32083;47.360;9.650;2022-11-15T11:10:24;10.30;99.90
46378;DHT22;32083;47.360;9.650;2022-11-15T11:12:51;10.30;99.90
46378;DHT22;32083;47.360;9.650;2022-11-15T11:15:17;10.30;99.90
46378;DHT22;32083;47.360;9.650;2022-11-15T11:20:46;10.50;99.90
46378;DHT22;32083;47.360;9.650;2022-11-15T11:31:38;10.60;99.90
46378;DHT22;32083;47.360;9.650;2022-11-15T11:47:46;10.80;99.90
46378;DHT22;32083;47.360;9.650;2022-11-15T11:50:19;10.90;99.90
46378;DHT22;32083;47.360;9.650;2022-11-15T11:55:22;10.90;99.90
46378;DHT22;32083;47.360;9.650;2022-11-15T12:03:29;10.90;99.90
46378;DHT22;32083;47.360;9.650;2022-11-15T12:06:06;10.80;99.90
46378;DHT22;32083;47.360;9.650;2022-11-15T12:12:05;10.70;99.90
46378;DHT22;32083;47.360;9.650;2022-11-15T12:14:41;10.70;99.90
46378;DHT22;32083;47.360;9.650;2022-11-15T12:17:10;10.80;99.90
46378;DHT22;32083;47.360;9.650;2022-11-15T12:19:38;10.80;99.90
46378;DHT22;32083;47.360;9.650;2022-11-15T12:22:20;10.90;99.90
46378;DHT22;32083;47.360;9.650;2022-11-15T12:30:18;10.80;99.90
46378;DHT22;32083;47.360;9.650;2022-11-15T12:32:52;10.80;99.90
46378;DHT22;32083;47.360;9.650;2022-11-15T12:35:30;10.80;99.90
46378;DHT22;32083;47.360;9.650;2022-11-15T12:37:57;10.80;99.90
46378;DHT22;32083;47.360;9.650;2022-11-15T12:40:27;10.90;99.90
46378;DHT22;32083;47.360;9.650;2022-11-15T12:45:41;10.80;99.90
46378;DHT22;32083;47.360;9.650;2022-11-15T12:58:50;10.90;99.90
46378;DHT22;32083;47.360;9.650;2022-11-15T13:04:10;10.90;99.90
46378;DHT22;32083;47.360;9.650;2022-11-15T13:06:41;11.00;99.90
46378;DHT22;32083;47.360;9.650;2022-11-15T13:11:59;11.10;99.90
46378;DHT22;32083;47.360;9.650;2022-11-15T13:14:41;11.10;99.90
46378;DHT22;32083;47.360;9.650;2022-11-15T13:25:57;11.00;99.90
46378;DHT22;32083;47.360;9.650;2022-11-15T13:31:22;11.00;99.90
46378;DHT22;32083;47.360;9.650;2022-11-15T13:33:49;11.00;99.90
46378;DHT22;32083;47.360;9.650;2022-11-15T13:36:20;11.00;99.90
46378;DHT22;32083;47.360;9.650;2022-11-15T13:41:27;11.00;99.90
46378;DHT22;32083;47.360;9.650;2022-11-15T13:43:54;11.10;99.90
46378;DHT22;32083;47.360;9.650;2022-11-15T13:46:32;11.10;99.90
46378;DHT22;32083;47.360;9.650;2022-11-15T13:49:08;11.20;99.90
46378;DHT22;32083;47.360;9.650;2022-11-15T13:51:53;11.20;99.90
46378;DHT22;32083;47.360;9.650;2022-11-15T13:57:02;11.20;99.90
46378;DHT22;32083;47.360;9.650;2022-11-15T13:59:37;11.20;99.90
46378;DHT22;32083;47.360;9.650;2022-11-15T14:02:14;11.10;99.90
46378;DHT22;32083;47.360;9.650;2022-11-15T14:07:39;11.10;99.90
46378;DHT22;32083;47.360;9.650;2022-11-15T14:10:25;11.10;99.90
46378;DHT22;32083;47.360;9.650;2022-11-15T14:12:51;11.10;99.90
46378;DHT22;32083;47.360;9.650;2022-11-15T14:15:31;11.00;99.90
46378;DHT22;32083;47.360;9.650;2022-11-15T14:17:58;11.00;99.90
46378;DHT22;32083;47.360;9.650;2022-11-15T14:20:36;11.00;99.90
46378;DHT22;32083;47.360;9.650;2022-11-15T14:23:27;11.00;99.90
46378;DHT22;32083;47.360;9.650;2022-11-15T14:25:57;11.00;99.90
46378;DHT22;32083;47.360;9.650;2022-11-15T14:30:50;11.00;99.90
46378;DHT22;32083;47.360;9.650;2022-11-15T14:33:37;11.00;99.90
46378;DHT22;32083;47.360;9.650;2022-11-15T14:38:31;11.00;99.90
46378;DHT22;32083;47.360;9.650;2022-11-15T14:40:57;11.00;99.90
46378;DHT22;32083;47.360;9.650;2022-11-15T14:43:24;11.00;99.90
46378;DHT22;32083;47.360;9.650;2022-11-15T14:45:50;11.00;99.90
46378;DHT22;32083;47.360;9.650;2022-11-15T14:48:16;11.00;99.90
46378;DHT22;32083;47.360;9.650;2022-11-15T14:50:41;11.00;99.90
46378;DHT22;32083;47.360;9.650;2022-11-15T14:53:12;10.90;99.90
46378;DHT22;32083;47.360;9.650;2022-11-15T14:55:39;10.90;99.90
46378;DHT22;32083;47.360;9.650;2022-11-15T14:58:06;10.90;99.90
46378;DHT22;32083;47.360;9.650;2022-11-15T15:00:37;10.90;99.90
46378;DHT22;32083;47.360;9.650;2022-11-15T15:03:04;10.90;99.90
46378;DHT22;32083;47.360;9.650;2022-11-15T15:08:04;10.90;99.90
46378;DHT22;32083;47.360;9.650;2022-11-15T15:10:39;10.90;99.90
46378;DHT22;32083;47.360;9.650;2022-11-15T15:13:16;10.90;99.90
46378;DHT22;32083;47.360;9.650;2022-11-15T15:15:43;10.90;99.90
46378;DHT22;32083;47.360;9.650;2022-11-15T15:18:09;10.90;99.90
46378;DHT22;32083;47.360;9.650;2022-11-15T15:20:38;10.90;99.90
46378;DHT22;32083;47.360;9.650;2022-11-15T15:23:05;10.80;99.90
46378;DHT22;32083;47.360;9.650;2022-11-15T15:25:34;10.90;99.90
46378;DHT22;32083;47.360;9.650;2022-11-15T15:28:01;10.80;99.90
46378;DHT22;32083;47.360;9.650;2022-11-15T15:30:29;10.80;99.90
46378;DHT22;32083;47.360;9.650;2022-11-15T15:32:55;10.70;99.90
46378;DHT22;32083;47.360;9.650;2022-11-15T15:35:22;10.70;99.90
46378;DHT22;32083;47.360;9.650;2022-11-15T15:37:49;10.70;99.90
46378;DHT22;32083;47.360;9.650;2022-11-15T15:40:20;10.70;99.90
46378;DHT22;32083;47.360;9.650;2022-11-15T15:42:48;10.70;99.90
46378;DHT22;32083;47.360;9.650;2022-11-15T15:45:15;10.70;99.90
46378;DHT22;32083;47.360;9.650;2022-11-15T15:47:43;10.70;99.90
46378;DHT22;32083;47.360;9.650;2022-11-15T15:50:23;10.60;99.90
46378;DHT22;32083;47.360;9.650;2022-11-15T15:52:53;10.60;99.90
46378;DHT22;32083;47.360;9.650;2022-11-15T15:55:20;10.60;99.90
46378;DHT22;32083;47.360;9.650;2022-11-15T15:57:46;10.50;99.90
46378;DHT22;32083;47.360;9.650;2022-11-15T16:00:12;10.50;99.90
46378;DHT22;32083;47.360;9.650;2022-11-15T16:02:39;10.50;99.90
46378;DHT22;32083;47.360;9.650;2022-11-15T16:05:06;10.40;99.90
46378;DHT22;32083;47.360;9.650;2022-11-15T16:07:32;10.50;99.90
46378;DHT22;32083;47.360;9.650;2022-11-15T16:09:58;10.50;99.90
46378;DHT22;32083;47.360;9.650;2022-11-15T16:12:34;10.50;99.90
46378;DHT22;32083;47.360;9.650;2022-11-15T16:15:01;10.50;99.90
46378;DHT22;32083;47.360;9.650;2022-11-15T16:17:33;10.40;99.90
46378;DHT22;32083;47.360;9.650;2022-11-15T16:20:00;10.30;99.90
46378;DHT22;32083;47.360;9.650;2022-11-15T16:22:26;10.30;99.90
46378;DHT22;32083;47.360;9.650;2022-11-15T16:24:54;10.30;99.90
46378;DHT22;32083;47.360;9.650;2022-11-15T16:27:20;10.40;99.90
46378;DHT22;32083;47.360;9.650;2022-11-15T16:29:47;10.40;99.90
46378;DHT22;32083;47.360;9.650;2022-11-15T16:32:14;10.40;99.90
46378;DHT22;32083;47.360;9.650;2022-11-15T16:34:40;10.40;99.90
46378;DHT22;32083;47.360;9.650;2022-11-15T16:37:08;10.30;99.90
46378;DHT22;32083;47.360;9.650;2022-11-15T16:39:37;10.30;99.90
46378;DHT22;32083;47.360;9.650;2022-11-15T16:42:03;10.30;99.90
46378;DHT22;32083;47.360;9.650;2022-11-15T16:44:29;10.30;99.90
46378;DHT22;32083;47.360;9.650;2022-11-15T16:46:55;10.30;99.90
46378;DHT22;32083;47.360;9.650;2022-11-15T16:49:21;10.30;99.90
46378;DHT22;32083;47.360;9.650;2022-11-15T16:51:49;10.20;99.90
46378;DHT22;32083;47.360;9.650;2022-11-15T16:54:16;10.20;99.90
46378;DHT22;32083;47.360;9.650;2022-11-15T16:56:42;10.20;99.90
46378;DHT22;32083;47.360;9.650;2022-11-15T16:59:14;10.20;99.90
46378;DHT22;32083;47.360;9.650;2022-11-15T17:01:41;10.20;99.90
46378;DHT22;32083;47.360;9.650;2022-11-15T17:04:16;10.20;99.90
46378;DHT22;32083;47.360;9.650;2022-11-15T17:06:44;10.20;99.90
46378;DHT22;32083;47.360;9.650;2022-11-15T17:09:21;10.20;99.90
46378;DHT22;32083;47.360;9.650;2022-11-15T17:11:50;10.20;99.90
46378;DHT22;32083;47.360;9.650;2022-11-15T17:14:17;10.20;99.90
46378;DHT22;32083;47.360;9.650;2022-11-15T17:16:43;10.20;99.90
46378;DHT22;32083;47.360;9.650;2022-11-15T17:19:15;10.10;99.90
46378;DHT22;32083;47.360;9.650;2022-11-15T17:21:42;10.20;99.90
46378;DHT22;32083;47.360;9.650;2022-11-15T17:24:08;10.20;99.90
46378;DHT22;32083;47.360;9.650;2022-11-15T17:26:36;10.20;99.90
46378;DHT22;32083;47.360;9.650;2022-11-15T17:29:03;10.10;99.90
46378;DHT22;32083;47.360;9.650;2022-11-15T17:31:33;10.10;99.90
46378;DHT22;32083;47.360;9.650;2022-11-15T17:34:01;10.10;99.90
46378;DHT22;32083;47.360;9.650;2022-11-15T17:36:27;10.10;99.90
46378;DHT22;32083;47.360;9.650;2022-11-15T17:38:53;10.10;99.90
46378;DHT22;32083;47.360;9.650;2022-11-15T17:41:19;10.10;99.90
46378;DHT22;32083;47.360;9.650;2022-11-15T17:43:48;10.10;99.90
46378;DHT22;32083;47.360;9.650;2022-11-15T17:46:18;10.00;99.90
46378;DHT22;32083;47.360;9.650;2022-11-15T17:48:46;10.00;99.90
46378;DHT22;32083;47.360;9.650;2022-11-15T17:51:14;10.00;99.90
46378;DHT22;32083;47.360;9.650;2022-11-15T17:53:42;10.00;99.90
46378;DHT22;32083;47.360;9.650;2022-11-15T17:56:11;10.00;99.90
46378;DHT22;32083;47.360;9.650;2022-11-15T17:58:37;10.00;99.90
46378;DHT22;32083;47.360;9.650;2022-11-15T18:01:25;10.00;99.90
46378;DHT22;32083;47.360;9.650;2022-11-15T18:03:52;10.00;99.90
46378;DHT22;32083;47.360;9.650;2022-11-15T18:06:19;9.90;99.90
46378;DHT22;32083;47.360;9.650;2022-11-15T18:08:47;10.00;99.90
46378;DHT22;32083;47.360;9.650;2022-11-15T18:11:15;10.00;99.90
46378;DHT22;32083;47.360;9.650;2022-11-15T18:13:43;10.00;99.90
46378;DHT22;32083;47.360;9.650;2022-11-15T18:16:12;10.00;99.90
46378;DHT22;32083;47.360;9.650;2022-11-15T18:18:39;10.00;99.90
46378;DHT22;32083;47.360;9.650;2022-11-15T18:21:15;10.00;99.90
46378;DHT22;32083;47.360;9.650;2022-11-15T18:23:42;10.00;99.90
46378;DHT22;32083;47.360;9.650;2022-11-15T18:26:11;10.00;99.90
46378;DHT22;32083;47.360;9.650;2022-11-15T18:28:40;10.00;99.90
46378;DHT22;32083;47.360;9.650;2022-11-15T18:31:18;10.00;99.90
46378;DHT22;32083;47.360;9.650;2022-11-15T18:33:44;10.00;99.90
46378;DHT22;32083;47.360;9.650;2022-11-15T18:36:19;9.90;99.90
46378;DHT22;32083;47.360;9.650;2022-11-15T18:38:46;10.00;99.90
46378;DHT22;32083;47.360;9.650;2022-11-15T18:41:14;9.90;99.90
46378;DHT22;32083;47.360;9.650;2022-11-15T18:43:42;9.90;99.90
46378;DHT22;32083;47.360;9.650;2022-11-15T18:46:11;9.90;99.90
46378;DHT22;32083;47.360;9.650;2022-11-15T18:48:38;9.90;99.90
46378;DHT22;32083;47.360;9.650;2022-11-15T18:51:10;9.90;99.90
46378;DHT22;32083;47.360;9.650;2022-11-15T18:53:37;9.90;99.90
46378;DHT22;32083;47.360;9.650;2022-11-15T18:56:12;9.90;99.90
46378;DHT22;32083;47.360;9.650;2022-11-15T18:58:40;9.90;99.90
46378;DHT22;32083;47.360;9.650;2022-11-15T19:03:37;9.80;99.90
46378;DHT22;32083;47.360;9.650;2022-11-15T19:06:06;9.80;99.90
46378;DHT22;32083;47.360;9.650;2022-11-15T19:08:36;9.80;99.90
46378;DHT22;32083;47.360;9.650;2022-11-15T19:11:05;9.80;99.90
46378;DHT22;32083;47.360;9.650;2022-11-15T19:13:31;9.80;99.90
46378;DHT22;32083;47.360;9.650;2022-11-15T19:16:01;9.80;99.90
46378;DHT22;32083;47.360;9.650;2022-11-15T19:18:29;9.80;99.90
46378;DHT22;32083;47.360;9.650;2022-11-15T19:20:55;9.80;99.90
46378;DHT22;32083;47.360;9.650;2022-11-15T19:23:22;9.80;99.90
46378;DHT22;32083;47.360;9.650;2022-11-15T19:25:55;9.80;99.90
46378;DHT22;32083;47.360;9.650;2022-11-15T19:28:24;9.80;99.90
46378;DHT22;32083;47.360;9.650;2022-11-15T19:30:52;9.80;99.90
46378;DHT22;32083;47.360;9.650;2022-11-15T19:33:18;9.80;99.90
46378;DHT22;32083;47.360;9.650;2022-11-15T19:35:46;9.80;99.90
46378;DHT22;32083;47.360;9.650;2022-11-15T19:38:12;9.80;99.90
46378;DHT22;32083;47.360;9.650;2022-11-15T19:40:39;9.80;99.90
46378;DHT22;32083;47.360;9.650;2022-11-15T19:43:05;9.90;99.90
46378;DHT22;32083;47.360;9.650;2022-11-15T19:45:31;9.90;99.90
46378;DHT22;32083;47.360;9.650;2022-11-15T19:47:57;9.90;99.90
46378;DHT22;32083;47.360;9.650;2022-11-15T19:50:24;9.80;99.90
46378;DHT22;32083;47.360;9.650;2022-11-15T19:52:50;9.80;99.90
46378;DHT22;32083;47.360;9.650;2022-11-15T19:55:16;9.80;99.90
46378;DHT22;32083;47.360;9.650;2022-11-15T19:57:42;9.80;99.90
46378;DHT22;32083;47.360;9.650;2022-11-15T20:00:08;9.80;99.90
46378;DHT22;32083;47.360;9.650;2022-11-15T20:02:35;9.70;99.90
46378;DHT22;32083;47.360;9.650;2022-11-15T20:05:01;9.70;99.90
46378;DHT22;32083;47.360;9.650;2022-11-15T20:07:27;9.70;99.90
46378;DHT22;32083;47.360;9.650;2022-11-15T20:09:53;9.70;99.90
46378;DHT22;32083;47.360;9.650;2022-11-15T20:12:19;9.60;99.90
46378;DHT22;32083;47.360;9.650;2022-11-15T20:14:45;9.60;99.90
46378;DHT22;32083;47.360;9.650;2022-11-15T20:17:11;9.60;99.90
46378;DHT22;32083;47.360;9.650;2022-11-15T20:19:38;9.60;99.90
46378;DHT22;32083;47.360;9.650;2022-11-15T20:22:04;9.60;99.90
46378;DHT22;32083;47.360;9.650;2022-11-15T20:24:30;9.50;99.90
46378;DHT22;32083;47.360;9.650;2022-11-15T20:26:56;9.50;99.90
46378;DHT22;32083;47.360;9.650;2022-11-15T20:29:22;9.40;99.90
46378;DHT22;32083;47.360;9.650;2022-11-15T20:31:48;9.40;99.90
46378;DHT22;32083;47.360;9.650;2022-11-15T20:34:14;9.30;99.90
46378;DHT22;32083;47.360;9.650;2022-11-15T20:36:40;9.30;99.90
46378;DHT22;32083;47.360;9.650;2022-11-15T20:39:06;9.20;99.90
46378;DHT22;32083;47.360;9.650;2022-11-15T20:41:32;9.20;99.90
46378;DHT22;32083;47.360;9.650;2022-11-15T20:43:58;9.10;99.90
46378;DHT22;32083;47.360;9.650;2022-11-15T20:46:27;9.10;99.90
46378;DHT22;32083;47.360;9.650;2022-11-15T20:48:53;9.10;99.90
46378;DHT22;32083;47.360;9.650;2022-11-15T20:51:19;9.10;99.90
46378;DHT22;32083;47.360;9.650;2022-11-15T20:53:46;9.00;99.90
46378;DHT22;32083;47.360;9.650;2022-11-15T20:56:18;9.00;99.90
46378;DHT22;32083;47.360;9.650;2022-11-15T20:58:45;9.00;99.90
46378;DHT22;32083;47.360;9.650;2022-11-15T21:01:13;8.90;99.90
46378;DHT22;32083;47.360;9.650;2022-11-15T21:03:39;8.90;99.90
46378;DHT22;32083;47.360;9.650;2022-11-15T21:06:06;8.90;99.90
46378;DHT22;32083;47.360;9.650;2022-11-15T21:08:32;8.90;99.90
46378;DHT22;32083;47.360;9.650;2022-11-15T21:11:19;8.90;99.90
46378;DHT22;32083;47.360;9.650;2022-11-15T21:14:03;8.80;99.90
46378;DHT22;32083;47.360;9.650;2022-11-15T21:16:29;8.80;99.90
46378;DHT22;32083;47.360;9.650;2022-11-15T21:18:56;8.70;99.90
46378;DHT22;32083;47.360;9.650;2022-11-15T21:21:22;8.80;99.90
46378;DHT22;32083;47.360;9.650;2022-11-15T21:23:48;8.70;99.90
46378;DHT22;32083;47.360;9.650;2022-11-15T21:26:14;8.70;99.90
46378;DHT22;32083;47.360;9.650;2022-11-15T21:28:40;8.80;99.90
46378;DHT22;32083;47.360;9.650;2022-11-15T21:31:07;8.70;99.90
46378;DHT22;32083;47.360;9.650;2022-11-15T21:33:33;8.80;99.90
46378;DHT22;32083;47.360;9.650;2022-11-15T21:35:59;8.80;99.90
46378;DHT22;32083;47.360;9.650;2022-11-15T21:38:27;8.70;99.90
46378;DHT22;32083;47.360;9.650;2022-11-15T21:40:53;8.70;99.90
46378;DHT22;32083;47.360;9.650;2022-11-15T21:43:20;8.70;99.90
46378;DHT22;32083;47.360;9.650;2022-11-15T21:45:56;8.70;99.90
46378;DHT22;32083;47.360;9.650;2022-11-15T21:48:25;8.70;99.90
46378;DHT22;32083;47.360;9.650;2022-11-15T21:50:59;8.70;99.90
46378;DHT22;32083;47.360;9.650;2022-11-15T21:53:26;8.70;99.90
46378;DHT22;32083;47.360;9.650;2022-11-15T21:55:53;8.70;99.90
46378;DHT22;32083;47.360;9.650;2022-11-15T21:58:20;8.80;99.90
46378;DHT22;32083;47.360;9.650;2022-11-15T22:00:46;8.80;99.90
46378;DHT22;32083;47.360;9.650;2022-11-15T22:03:32;8.80;99.90
46378;DHT22;32083;47.360;9.650;2022-11-15T22:05:58;8.80;99.90
46378;DHT22;32083;47.360;9.650;2022-11-15T22:08:25;8.80;99.90
46378;DHT22;32083;47.360;9.650;2022-11-15T22:10:51;8.80;99.90
46378;DHT22;32083;47.360;9.650;2022-11-15T22:13:22;8.80;99.90
46378;DHT22;32083;47.360;9.650;2022-11-15T22:15:48;8.80;99.90
46378;DHT22;32083;47.360;9.650;2022-11-15T22:18:16;8.80;99.90
46378;DHT22;32083;47.360;9.650;2022-11-15T22:23:18;8.80;99.90
46378;DHT22;32083;47.360;9.650;2022-11-15T22:25:45;8.80;99.90
46378;DHT22;32083;47.360;9.650;2022-11-15T22:28:11;8.70;99.90
46378;DHT22;32083;47.360;9.650;2022-11-15T22:30:37;8.80;99.90
46378;DHT22;32083;47.360;9.650;2022-11-15T22:33:03;8.80;99.90
46378;DHT22;32083;47.360;9.650;2022-11-15T22:35:29;8.90;99.90
46378;DHT22;32083;47.360;9.650;2022-11-15T22:37:55;8.80;99.90
46378;DHT22;32083;47.360;9.650;2022-11-15T22:40:21;8.90;99.90
46378;DHT22;32083;47.360;9.650;2022-11-15T22:42:47;8.80;99.90
46378;DHT22;32083;47.360;9.650;2022-11-15T22:45:13;8.90;99.90
46378;DHT22;32083;47.360;9.650;2022-11-15T22:47:39;8.80;99.90
46378;DHT22;32083;47.360;9.650;2022-11-15T22:50:05;8.80;99.90
46378;DHT22;32083;47.360;9.650;2022-11-15T22:52:31;8.90;99.90